Time;durP1;ratioP1;P1;durP2;ratioP2;P2;SDS_P1;SDS_P2;PMS_P1;PMS_P2;Temp;Humidity;BMP_temperature;BMP_pressure;BME280_temperature;BME280_humidity;BME280_pressure;Samples;Min_cycle;Max_cycle;Signal;HPM_P1;HPM_P2
2022/06/06 00:00:18;;;;;;;4.55;3.65;;;;;12.80;94330.00;;;;7388773;19;20603;-76
2022/06/06 00:02:46;;;;;;;4.03;3.50;;;;;12.80;94320.00;;;;7391470;19;20129;-75
2022/06/06 00:05:16;;;;;;;3.97;3.58;;;;;12.80;94315.00;;;;7391966;19;20136;-74
2022/06/06 00:07:51;;;;;;;4.70;3.55;;;;;12.80;94318.00;;;;7391289;19;20473;-74
2022/06/06 00:10:18;;;;;;;3.67;3.28;;;;;12.80;94322.00;;;;7391416;19;20149;-74
2022/06/06 00:12:46;;;;;;;4.10;3.60;;;;;12.80;94319.00;;;;7392839;19;20133;-75
2022/06/06 00:15:22;;;;;;;4.53;3.35;;;;;12.80;94317.00;;;;7392903;19;20191;-74
2022/06/06 00:17:49;;;;;;;4.07;3.55;;;;;12.80;94306.00;;;;7392516;19;20137;-74
2022/06/06 00:20:17;;;;;;;5.22;3.75;;;;;12.90;94305.00;;;;7391582;19;20145;-75
2022/06/06 00:22:51;;;;;;;6.18;3.92;;;;;12.90;94307.00;;;;7392819;19;20128;-76
2022/06/06 00:25:19;;;;;;;4.10;3.70;;;;;12.80;94292.00;;;;7392933;19;20516;-75
2022/06/06 00:27:46;;;;;;;5.25;3.97;;;;;12.80;94303.00;;;;7391529;19;20141;-75
2022/06/06 00:30:20;;;;;;;4.07;3.42;;;;;12.80;94291.00;;;;7391680;19;20128;-74
2022/06/06 00:35:40;;;;;;;4.65;3.53;;;;;12.50;94284.00;;;;7392338;19;20456;-74
2022/06/06 00:38:10;;;;;;;7.28;3.92;;;;;12.50;94282.00;;;;7391330;19;20129;-74
2022/06/06 00:40:37;;;;;;;4.65;3.80;;;;;12.50;94280.00;;;;7389514;19;20768;-74
2022/06/06 00:43:11;;;;;;;4.75;4.15;;;;;12.40;94275.00;;;;7391085;19;20133;-76
2022/06/06 00:45:39;;;;;;;5.82;3.45;;;;;12.40;94272.00;;;;7386100;19;20140;-74
2022/06/06 00:48:17;;;;;;;5.43;3.75;;;;;12.40;94270.00;;;;7394596;19;20158;-75
2022/06/06 00:51:12;;;;;;;9.68;4.38;;;;;12.50;94274.00;;;;7389590;19;20141;-74
2022/06/06 00:53:50;;;;;;;5.68;5.18;;;;;12.70;94273.00;;;;7390046;19;20140;-74
2022/06/06 00:56:59;;;;;;;6.50;5.78;;;;;12.70;94266.00;;;;7391473;19;20476;-74
2022/06/06 00:59:32;;;;;;;5.95;4.38;;;;;12.60;94265.00;;;;7388840;19;20142;-75
2022/06/06 01:02:10;;;;;;;8.25;4.70;;;;;12.50;94260.00;;;;7389978;19;20138;-75
2022/06/06 01:04:39;;;;;;;8.15;4.82;;;;;12.50;94266.00;;;;7390155;19;20483;-75
2022/06/06 01:07:13;;;;;;;10.15;5.82;;;;;12.50;94260.00;;;;7390343;19;20136;-74
2022/06/06 01:09:42;;;;;;;6.38;4.50;;;;;12.50;94262.00;;;;7391507;19;20133;-75
2022/06/06 01:12:14;;;;;;;9.02;4.93;;;;;12.60;94262.00;;;;7391274;19;20943;-75
2022/06/06 01:14:55;;;;;;;6.85;5.00;;;;;12.40;94259.00;;;;7390735;19;20136;-76
2022/06/06 01:17:36;;;;;;;6.20;5.25;;;;;12.40;94257.00;;;;7396295;19;20127;-74
2022/06/06 01:20:25;;;;;;;10.77;5.50;;;;;12.30;94254.00;;;;7406497;19;20200;-74
2022/06/06 01:23:14;;;;;;;7.35;5.65;;;;;12.40;94252.00;;;;7403728;19;20144;-74
2022/06/06 01:25:59;;;;;;;11.07;6.22;;;;;12.50;94253.00;;;;7404100;19;20145;-74
2022/06/06 01:29:04;;;;;;;8.88;5.68;;;;;12.60;94248.00;;;;7403912;19;20128;-74
2022/06/06 01:31:48;;;;;;;7.50;6.32;;;;;12.80;94241.00;;;;7404519;19;20595;-74
2022/06/06 01:34:43;;;;;;;9.90;6.15;;;;;12.80;94240.00;;;;7405810;19;20124;-73
2022/06/06 01:37:49;;;;;;;7.97;6.68;;;;;12.80;94236.00;;;;7405685;19;20127;-74
2022/06/06 01:40:28;;;;;;;11.30;6.90;;;;;12.80;94234.00;;;;7401356;19;20141;-74
2022/06/06 01:43:20;;;;;;;10.20;6.93;;;;;12.90;94237.00;;;;7403504;19;20133;-74
2022/06/06 01:45:56;;;;;;;13.05;6.88;;;;;12.90;94228.00;;;;7404652;19;20533;-74
2022/06/06 01:48:38;;;;;;;6.82;6.13;;;;;12.90;94227.00;;;;7403408;19;20153;-73
2022/06/06 01:51:11;;;;;;;10.95;6.20;;;;;12.80;94227.00;;;;7405197;19;20533;-76
2022/06/06 01:53:45;;;;;;;7.75;6.05;;;;;12.80;94224.00;;;;7404217;19;20145;-74
2022/06/06 01:56:21;;;;;;;6.60;5.95;;;;;12.70;94228.00;;;;7403174;19;20144;-74
2022/06/06 01:58:56;;;;;;;8.85;5.45;;;;;12.60;94233.00;;;;7403511;19;20469;-74
2022/06/06 02:01:24;;;;;;;6.95;5.32;;;;;12.50;94224.00;;;;7403222;19;20152;-75
2022/06/06 02:03:52;;;;;;;7.93;5.10;;;;;12.40;94216.00;;;;7403935;19;20575;-74
2022/06/06 02:06:26;;;;;;;6.68;4.65;;;;;12.40;94222.00;;;;7404096;19;20602;-74
2022/06/06 02:08:56;;;;;;;6.25;5.30;;;;;12.30;94219.00;;;;7402853;19;20573;-74
2022/06/06 02:11:24;;;;;;;10.15;6.07;;;;;12.20;94211.00;;;;7402675;19;20172;-73
2022/06/06 02:13:58;;;;;;;10.00;7.10;;;;;12.60;94205.00;;;;7405062;19;20615;-73
2022/06/06 02:16:26;;;;;;;10.73;6.65;;;;;12.60;94207.00;;;;7403098;19;20136;-74
2022/06/06 02:18:53;;;;;;;8.55;6.60;;;;;12.70;94205.00;;;;7404328;19;20184;-74
2022/06/06 02:21:41;;;;;;;8.70;7.15;;;;;12.80;94208.00;;;;7402825;19;20631;-75
2022/06/06 02:24:08;;;;;;;12.10;7.07;;;;;12.90;94195.00;;;;7402883;19;20633;-74
2022/06/06 02:26:42;;;;;;;12.13;7.43;;;;;13.00;94195.00;;;;7403550;19;20129;-75
2022/06/06 02:29:10;;;;;;;9.40;7.22;;;;;13.00;94197.00;;;;7397604;19;20137;-75
2022/06/06 02:31:37;;;;;;;7.50;6.50;;;;;13.00;94205.00;;;;7396217;19;20145;-75
2022/06/06 02:34:12;;;;;;;13.90;6.75;;;;;12.90;94200.00;;;;7396924;19;20140;-74
2022/06/06 02:36:39;;;;;;;10.98;6.40;;;;;13.10;94194.00;;;;7394846;19;20137;-75
2022/06/06 02:39:12;;;;;;;8.13;7.32;;;;;13.20;94195.00;;;;7396362;19;20129;-75
2022/06/06 02:41:55;;;;;;;8.35;6.35;;;;;13.20;94200.00;;;;7392806;19;20656;-76
2022/06/06 02:44:23;;;;;;;7.88;6.38;;;;;13.20;94202.00;;;;7395550;19;20141;-75
2022/06/06 02:46:59;;;;;;;8.07;5.97;;;;;13.00;94199.00;;;;7395559;19;20636;-75
2022/06/06 02:49:27;;;;;;;8.00;5.75;;;;;12.90;94202.00;;;;7394561;19;20158;-75
2022/06/06 02:51:54;;;;;;;6.47;5.35;;;;;12.90;94205.00;;;;7396169;19;20607;-75
2022/06/06 02:54:29;;;;;;;6.28;5.55;;;;;12.80;94201.00;;;;7397281;19;20479;-75
2022/06/06 02:57:03;;;;;;;6.80;6.20;;;;;12.80;94206.00;;;;7394947;19;20605;-76
2022/06/06 02:59:38;;;;;;;6.60;6.00;;;;;12.80;94212.00;;;;7396053;19;20196;-75
2022/06/06 03:02:08;;;;;;;6.53;5.72;;;;;12.80;94199.00;;;;7394980;19;20165;-75
2022/06/06 03:04:39;;;;;;;7.97;6.10;;;;;12.90;94206.00;;;;7394307;19;20596;-75
2022/06/06 03:07:36;;;;;;;7.45;6.32;;;;;12.90;94198.00;;;;7394186;19;20152;-75
2022/06/06 03:10:31;;;;;;;7.70;6.03;;;;;13.00;94187.00;;;;7395601;19;20144;-75
2022/06/06 03:13:43;;;;;;;6.28;5.68;;;;;13.00;94201.00;;;;7395041;19;20625;-76
2022/06/06 03:22:39;;;;;;;8.75;6.55;;;;;13.10;94203.00;;;;7392552;19;20658;-76
2022/06/06 03:25:30;;;;;;;7.70;6.57;;;;;13.00;94212.00;;;;7392143;19;20618;-75
2022/06/06 03:28:21;;;;;;;9.40;6.88;;;;;13.10;94212.00;;;;7394205;19;20113;-74
2022/06/06 03:31:25;;;;;;;9.85;6.78;;;;;13.10;94217.00;;;;7393839;19;20480;-75
2022/06/06 03:34:11;;;;;;;6.90;6.20;;;;;13.00;94215.00;;;;7393634;19;20144;-74
2022/06/06 03:36:55;;;;;;;10.15;6.20;;;;;12.90;94210.00;;;;7396374;19;20164;-74
2022/06/06 03:39:35;;;;;;;7.35;6.65;;;;;12.90;94212.00;;;;7394169;19;20120;-75
2022/06/06 03:42:27;;;;;;;7.78;6.10;;;;;12.90;94223.00;;;;7395383;19;20153;-74
2022/06/06 03:45:00;;;;;;;6.97;6.28;;;;;12.80;94229.00;;;;7388625;19;20220;-75
2022/06/06 03:48:08;;;;;;;8.43;5.60;;;;;12.80;94230.00;;;;7396044;19;20146;-76
2022/06/06 03:50:55;;;;;;;8.35;6.07;;;;;12.80;94229.00;;;;7392461;19;20140;-75
2022/06/06 03:53:40;;;;;;;6.57;5.90;;;;;12.70;94233.00;;;;7392110;19;20133;-74
2022/06/06 03:56:32;;;;;;;6.70;6.00;;;;;12.70;94231.00;;;;7392544;19;20231;-75
2022/06/06 03:59:08;;;;;;;12.82;5.15;;;;;12.60;94233.00;;;;7391912;19;20619;-75
2022/06/06 04:01:39;;;;;;;8.40;6.05;;;;;12.80;94228.00;;;;7393269;19;20144;-75
2022/06/06 04:04:15;;;;;;;8.35;6.30;;;;;12.90;94236.00;;;;7392216;19;20141;-75
2022/06/06 04:06:43;;;;;;;7.60;6.35;;;;;13.00;94240.00;;;;7391202;19;20136;-76
2022/06/06 04:09:10;;;;;;;10.50;6.25;;;;;13.30;94240.00;;;;7392038;19;20137;-75
2022/06/06 04:12:26;;;;;;;8.10;6.95;;;;;13.60;94228.00;;;;7393895;19;20141;-74
2022/06/06 04:15:11;;;;;;;9.50;6.75;;;;;13.90;94231.00;;;;7392635;19;20133;-75
2022/06/06 04:18:26;;;;;;;7.43;6.60;;;;;14.10;94230.00;;;;7393243;19;20141;-75
2022/06/06 04:20:53;;;;;;;10.45;5.93;;;;;14.10;94236.00;;;;7391828;19;20132;-75
2022/06/06 04:23:36;;;;;;;7.85;6.00;;;;;14.30;94229.00;;;;7393143;19;20124;-74
2022/06/06 04:26:20;;;;;;;13.85;5.80;;;;;14.30;94228.00;;;;7391369;19;20148;-75
2022/06/06 04:29:14;;;;;;;9.45;5.70;;;;;14.30;94229.00;;;;7391144;19;20137;-75
2022/06/06 04:32:30;;;;;;;7.90;5.60;;;;;14.40;94222.00;;;;7393052;19;20129;-76
2022/06/06 04:35:28;;;;;;;6.47;5.38;;;;;14.70;94226.00;;;;7388889;19;20626;-75
2022/06/06 04:38:33;;;;;;;5.78;5.20;;;;;14.80;94227.00;;;;7389628;19;20124;-76
2022/06/06 04:41:30;;;;;;;6.28;4.85;;;;;14.80;94222.00;;;;7389694;19;20164;-75
2022/06/06 04:44:04;;;;;;;5.18;4.70;;;;;14.80;94214.00;;;;7391246;19;20142;-75
2022/06/06 04:46:47;;;;;;;7.30;4.57;;;;;14.90;94223.00;;;;7390459;19;20156;-77
2022/06/06 04:49:15;;;;;;;10.20;5.07;;;;;15.00;94216.00;;;;7390258;19;20155;-75
2022/06/06 04:51:50;;;;;;;5.43;4.60;;;;;15.20;94218.00;;;;7389427;19;20140;-76
2022/06/06 04:54:22;;;;;;;5.30;4.80;;;;;15.60;94218.00;;;;7390693;19;20168;-75
2022/06/06 04:57:02;;;;;;;6.43;4.40;;;;;15.60;94217.00;;;;7390817;19;20139;-76
2022/06/06 04:59:30;;;;;;;9.00;4.07;;;;;15.80;94223.00;;;;7390953;19;20147;-77
2022/06/06 05:02:05;;;;;;;5.03;4.53;;;;;15.90;94219.00;;;;7391860;19;20137;-76
2022/06/06 05:04:32;;;;;;;8.93;3.97;;;;;15.90;94220.00;;;;7389699;19;20148;-76
2022/06/06 05:07:19;;;;;;;4.63;3.78;;;;;16.00;94214.00;;;;7390116;19;20139;-76
2022/06/06 05:10:22;;;;;;;7.38;4.07;;;;;16.10;94230.00;;;;7390337;19;20145;-76
2022/06/06 05:13:18;;;;;;;4.78;4.10;;;;;15.90;94226.00;;;;7390627;19;20149;-76
2022/06/06 05:16:12;;;;;;;5.43;4.15;;;;;15.90;94230.00;;;;7390197;19;20605;-75
2022/06/06 05:19:01;;;;;;;4.32;3.75;;;;;15.90;94224.00;;;;7390172;19;20141;-75
2022/06/06 05:22:01;;;;;;;7.45;3.92;;;;;15.90;94233.00;;;;7389236;19;20139;-75
2022/06/06 05:24:54;;;;;;;4.97;4.10;;;;;15.90;94231.00;;;;7386247;19;20141;-77
2022/06/06 05:28:02;;;;;;;4.90;3.70;;;;;16.00;94230.00;;;;7391494;19;20172;-78
2022/06/06 05:30:35;;;;;;;5.13;4.10;;;;;16.20;94231.00;;;;7391548;19;20148;-78
2022/06/06 05:33:27;;;;;;;4.18;3.58;;;;;16.30;94230.00;;;;7394383;19;20133;-77
2022/06/06 05:36:33;;;;;;;5.22;3.95;;;;;16.40;94230.00;;;;7390352;19;20603;-77
2022/06/06 05:39:29;;;;;;;6.03;3.72;;;;;16.40;94227.00;;;;7394210;19;20611;-76
2022/06/06 05:42:36;;;;;;;5.15;3.80;;;;;16.60;94228.00;;;;7391621;19;20176;-76
2022/06/06 05:45:29;;;;;;;4.80;3.78;;;;;16.70;94226.00;;;;7395094;19;20148;-76
2022/06/06 05:48:38;;;;;;;7.78;3.70;;;;;17.00;94231.00;;;;7393541;19;20221;-78
2022/06/06 05:51:35;;;;;;;4.95;3.47;;;;;16.80;94245.00;;;;7397503;19;20154;-75
2022/06/06 05:54:20;;;;;;;6.13;3.40;;;;;17.40;94230.00;;;;7394828;19;20197;-77
2022/06/06 05:57:07;;;;;;;5.97;3.55;;;;;17.40;94242.00;;;;7395923;19;20181;-77
2022/06/06 05:59:46;;;;;;;3.85;3.33;;;;;17.40;94241.00;;;;7395001;19;20145;-77
2022/06/06 06:03:08;;;;;;;4.25;3.28;;;;;17.10;94241.00;;;;7395397;19;20129;-76
2022/06/06 06:05:44;;;;;;;4.70;3.33;;;;;17.20;94257.00;;;;7395644;19;20133;-77
2022/06/06 06:08:18;;;;;;;3.28;2.97;;;;;17.00;94258.00;;;;7400403;19;20863;-76
2022/06/06 06:10:54;;;;;;;6.03;3.00;;;;;16.80;94269.00;;;;7400598;19;20145;-77
2022/06/06 06:13:29;;;;;;;4.35;3.15;;;;;16.60;94267.00;;;;7403242;19;20151;-76
2022/06/06 06:16:01;;;;;;;4.35;3.20;;;;;16.70;94264.00;;;;7398663;19;20136;-78
2022/06/06 06:19:04;;;;;;;6.60;2.90;;;;;17.00;94270.00;;;;7401173;19;20713;-76
2022/06/06 06:21:41;;;;;;;4.78;3.03;;;;;17.20;94275.00;;;;7401693;19;20168;-77
2022/06/06 06:24:24;;;;;;;4.75;3.03;;;;;16.80;94273.00;;;;7400165;19;20140;-76
2022/06/06 06:26:55;;;;;;;5.60;3.20;;;;;17.10;94280.00;;;;7399220;19;20129;-76
2022/06/06 06:29:29;;;;;;;5.57;3.05;;;;;17.10;94284.00;;;;7402757;19;20857;-77
2022/06/06 06:32:37;;;;;;;3.45;2.75;;;;;16.90;94285.00;;;;7399065;19;20490;-76
2022/06/06 06:35:25;;;;;;;6.53;3.10;;;;;16.70;94291.00;;;;7402255;19;20145;-76
2022/06/06 06:38:12;;;;;;;3.72;2.78;;;;;16.70;94303.00;;;;7398562;19;20150;-76
2022/06/06 06:41:08;;;;;;;3.35;3.05;;;;;16.60;94308.00;;;;7399339;19;20176;-77
2022/06/06 06:43:51;;;;;;;5.22;2.85;;;;;16.40;94322.00;;;;7398904;19;20129;-78
2022/06/06 06:46:27;;;;;;;3.33;2.70;;;;;16.40;94324.00;;;;7397067;19;20919;-77
2022/06/06 06:49:16;;;;;;;4.82;3.03;;;;;16.40;94332.00;;;;7401186;19;20584;-78
2022/06/06 06:52:15;;;;;;;5.72;3.30;;;;;16.30;94332.00;;;;7398041;19;20148;-76
2022/06/06 06:55:02;;;;;;;8.93;3.30;;;;;16.60;94323.00;;;;7400145;19;20151;-75
2022/06/06 06:57:55;;;;;;;3.60;2.85;;;;;17.20;94318.00;;;;7397763;19;20135;-75
2022/06/06 07:00:24;;;;;;;3.22;2.85;;;;;17.60;94318.00;;;;7399473;19;20203;-77
2022/06/06 07:10:02;;;;;;;4.50;2.70;;;;;18.50;94309.00;;;;7348993;19;20556;-76
2022/06/06 07:12:47;;;;;;;3.25;2.50;;;;;18.40;94310.00;;;;7349377;19;20597;-75
2022/06/06 07:15:44;;;;;;;2.88;2.47;;;;;18.00;94307.00;;;;7401160;19;20153;-76
2022/06/06 07:18:16;;;;;;;3.78;2.60;;;;;18.00;94314.00;;;;7399864;19;20145;-75
2022/06/06 07:20:52;;;;;;;3.17;2.63;;;;;17.90;94306.00;;;;7399856;19;20267;-77
2022/06/06 07:23:22;;;;;;;2.65;2.40;;;;;17.80;94306.00;;;;7401742;19;20222;-77
2022/06/06 07:25:59;;;;;;;2.47;2.28;;;;;17.70;94302.00;;;;7397085;19;20500;-77
2022/06/06 07:28:27;;;;;;;4.93;2.70;;;;;17.60;94310.00;;;;7398479;19;20137;-77
2022/06/06 07:31:44;;;;;;;3.65;2.53;;;;;17.80;94309.00;;;;7400519;19;20457;-76
2022/06/06 07:34:51;;;;;;;4.18;2.80;;;;;18.10;94309.00;;;;7399911;19;20129;-76
2022/06/06 07:37:27;;;;;;;3.92;2.47;;;;;18.40;94307.00;;;;7400981;19;20144;-77
2022/06/06 07:40:32;;;;;;;3.28;2.60;;;;;18.50;94304.00;;;;7401888;19;20145;-76
2022/06/06 07:43:13;;;;;;;4.03;2.53;;;;;18.20;94299.00;;;;7401752;19;20600;-76
2022/06/06 07:46:19;;;;;;;2.90;2.22;;;;;18.30;94304.00;;;;7394508;19;20149;-77
2022/06/06 07:49:00;;;;;;;3.97;2.22;;;;;18.50;94297.00;;;;7401289;19;20121;-76
2022/06/06 07:52:04;;;;;;;2.83;2.40;;;;;18.40;94290.00;;;;7402984;19;20125;-76
2022/06/06 07:55:03;;;;;;;4.78;2.33;;;;;18.60;94296.00;;;;7399691;19;20149;-78
2022/06/06 07:57:40;;;;;;;4.28;2.22;;;;;19.00;94301.00;;;;7398360;19;20466;-78
2022/06/06 08:00:19;;;;;;;3.13;2.50;;;;;19.10;94283.00;;;;7401993;19;20518;-78
2022/06/06 08:03:03;;;;;;;4.65;2.25;;;;;19.00;94285.00;;;;7403314;19;20137;-78
2022/06/06 08:06:02;;;;;;;2.80;2.10;;;;;19.20;94294.00;;;;7398487;19;20157;-77
2022/06/06 08:08:51;;;;;;;4.68;2.20;;;;;18.90;94288.00;;;;7401720;19;20124;-76
2022/06/06 08:12:04;;;;;;;4.85;2.20;;;;;18.90;94284.00;;;;7402345;19;20160;-78
2022/06/06 08:14:59;;;;;;;2.33;2.10;;;;;18.60;94284.00;;;;7403461;19;20145;-77
2022/06/06 08:17:53;;;;;;;3.65;2.30;;;;;19.00;94279.00;;;;7398077;19;20170;-76
2022/06/06 08:20:57;;;;;;;3.38;2.10;;;;;19.20;94286.00;;;;7405501;19;20497;-78
2022/06/06 08:23:27;;;;;;;2.88;2.10;;;;;19.10;94278.00;;;;7403263;19;20239;-77
2022/06/06 08:26:03;;;;;;;4.60;1.88;;;;;18.90;94281.00;;;;7398572;19;20155;-77
2022/06/06 08:28:37;;;;;;;4.40;1.83;;;;;19.10;94281.00;;;;7402376;19;20141;-78
2022/06/06 08:31:12;;;;;;;2.95;2.03;;;;;18.90;94279.00;;;;7402517;19;20604;-78
2022/06/06 08:33:40;;;;;;;3.75;2.15;;;;;19.20;94266.00;;;;7401312;19;20250;-79
2022/06/06 08:36:20;;;;;;;4.30;2.50;;;;;18.70;94281.00;;;;7399599;19;20140;-78
2022/06/06 08:38:58;;;;;;;3.53;2.03;;;;;19.10;94285.00;;;;7400999;19;20212;-77
2022/06/06 08:41:48;;;;;;;2.00;1.90;;;;;18.70;94288.00;;;;7398648;19;20235;-76
2022/06/06 08:44:46;;;;;;;4.43;2.30;;;;;18.40;94278.00;;;;7398915;19;20475;-78
2022/06/06 08:47:29;;;;;;;5.22;2.20;;;;;19.70;94262.00;;;;7395849;19;20569;-76
2022/06/06 08:50:45;;;;;;;2.83;2.20;;;;;20.50;94264.00;;;;7397366;19;20141;-76
2022/06/06 08:53:22;;;;;;;2.75;1.90;;;;;19.40;94268.00;;;;7398578;19;20140;-76
2022/06/06 08:56:25;;;;;;;6.60;1.65;;;;;20.10;94263.00;;;;7396609;19;20136;-76
2022/06/06 08:59:01;;;;;;;3.13;1.85;;;;;19.60;94256.00;;;;7400358;19;20121;-76
2022/06/06 09:02:03;;;;;;;2.63;1.73;;;;;20.40;94246.00;;;;7396505;19;20596;-76
2022/06/06 09:05:00;;;;;;;3.55;2.00;;;;;20.20;94239.00;;;;7397658;19;20149;-77
2022/06/06 09:08:16;;;;;;;3.03;1.80;;;;;20.60;94237.00;;;;7400798;19;20121;-76
2022/06/06 09:11:11;;;;;;;1.98;1.60;;;;;20.60;94247.00;;;;7396239;19;20648;-76
2022/06/06 09:14:23;;;;;;;4.88;1.73;;;;;21.40;94222.00;;;;7394659;19;20159;-75
2022/06/06 09:17:11;;;;;;;2.72;1.63;;;;;21.20;94220.00;;;;7394300;19;20132;-76
2022/06/06 09:20:10;;;;;;;3.95;1.90;;;;;20.90;94243.00;;;;7394390;19;20647;-76
2022/06/06 09:23:16;;;;;;;2.42;1.50;;;;;20.50;94240.00;;;;7394875;19;20242;-75
2022/06/06 09:25:59;;;;;;;5.25;1.50;;;;;20.30;94249.00;;;;7395055;19;20152;-79
2022/06/06 09:28:30;;;;;;;2.40;1.38;;;;;20.30;94250.00;;;;7396419;19;20180;-77
2022/06/06 09:31:29;;;;;;;1.80;1.70;;;;;20.10;94232.00;;;;7396423;19;20663;-77
2022/06/06 09:34:21;;;;;;;2.80;1.50;;;;;21.00;94235.00;;;;7394933;19;20141;-78
2022/06/06 09:37:37;;;;;;;1.50;1.40;;;;;20.90;94258.00;;;;7396509;19;20144;-76
2022/06/06 09:40:21;;;;;;;2.03;1.58;;;;;20.10;94261.00;;;;7403579;19;20128;-76
2022/06/06 09:43:14;;;;;;;1.63;1.50;;;;;19.70;94246.00;;;;7406450;19;20135;-76
2022/06/06 09:45:42;;;;;;;1.73;1.48;;;;;19.80;94259.00;;;;7400771;19;20137;-76
2022/06/06 09:48:49;;;;;;;2.78;1.70;;;;;19.80;94258.00;;;;7399451;19;20162;-77
2022/06/06 09:51:35;;;;;;;1.50;1.40;;;;;20.40;94239.00;;;;7404652;19;20149;-76
2022/06/06 10:01:19;;;;;;;1.70;1.40;;;;;21.40;94247.00;;;;7403848;19;20170;-77
2022/06/06 10:04:01;;;;;;;2.25;1.60;;;;;21.10;94242.00;;;;7399792;19;20546;-78
2022/06/06 10:07:00;;;;;;;1.98;1.40;;;;;20.50;94245.00;;;;7393941;19;20168;-75
2022/06/06 10:09:30;;;;;;;2.20;1.50;;;;;20.00;94256.00;;;;7396292;19;20149;-77
2022/06/06 10:12:07;;;;;;;3.90;1.63;;;;;19.50;94252.00;;;;7400620;19;20153;-76
2022/06/06 10:15:13;;;;;;;2.33;1.45;;;;;19.40;94242.00;;;;7400872;19;20149;-77
2022/06/06 10:18:18;;;;;;;1.77;1.40;;;;;19.00;94247.00;;;;7396515;19;20129;-80
2022/06/06 10:21:15;;;;;;;4.07;1.83;;;;;18.90;94248.00;;;;7397856;19;20177;-78
2022/06/06 10:24:16;;;;;;;3.70;1.88;;;;;19.30;94239.00;;;;7396614;19;20137;-79
2022/06/06 10:26:53;;;;;;;4.45;1.60;;;;;19.00;94247.00;;;;7395771;19;20596;-79
2022/06/06 10:30:10;;;;;;;3.28;1.65;;;;;19.20;94245.00;;;;7399163;19;20136;-78
2022/06/06 10:32:56;;;;;;;2.67;1.73;;;;;19.30;94246.00;;;;7399637;19;20612;-79
2022/06/06 10:35:49;;;;;;;2.15;1.70;;;;;19.40;94242.00;;;;7398577;19;20200;-78
2022/06/06 10:38:44;;;;;;;1.73;1.60;;;;;19.10;94245.00;;;;7397958;19;20137;-78
2022/06/06 10:42:09;;;;;;;3.22;1.63;;;;;19.50;94215.00;;;;7396669;19;20172;-79
2022/06/06 10:45:10;;;;;;;1.90;1.30;;;;;21.20;94211.00;;;;7399461;19;20137;-77
2022/06/06 10:48:15;;;;;;;3.30;2.25;;;;;21.60;94197.00;;;;7395953;19;20123;-75
2022/06/06 10:54:13;;;;;;;2.05;1.88;;;;;22.00;94218.00;;;;7395175;19;20143;-77
2022/06/06 10:57:06;;;;;;;3.58;2.17;;;;;20.90;94224.00;;;;7395693;19;20145;-75
2022/06/06 11:00:03;;;;;;;2.22;1.60;;;;;20.30;94238.00;;;;7396273;19;20133;-76
2022/06/06 11:02:36;;;;;;;4.53;1.60;;;;;20.10;94242.00;;;;7397655;19;20136;-76
2022/06/06 11:05:39;;;;;;;4.82;1.63;;;;;19.70;94225.00;;;;7396074;19;20637;-75
2022/06/06 11:08:13;;;;;;;4.35;1.70;;;;;19.40;94222.00;;;;7396395;19;20154;-76
2022/06/06 11:11:15;;;;;;;4.75;1.90;;;;;19.10;94219.00;;;;7398689;19;20135;-78
2022/06/06 11:13:52;;;;;;;2.05;1.40;;;;;19.10;94224.00;;;;7397314;19;20180;-76
2022/06/06 11:16:44;;;;;;;2.08;1.70;;;;;19.30;94220.00;;;;7396421;19;20155;-76
2022/06/06 11:19:26;;;;;;;2.17;1.52;;;;;19.10;94217.00;;;;7396990;19;20608;-76
2022/06/06 11:22:18;;;;;;;1.95;1.63;;;;;19.20;94220.00;;;;7398000;19;20148;-78
2022/06/06 11:25:17;;;;;;;4.85;1.60;;;;;18.80;94234.00;;;;7397040;19;20604;-76
2022/06/06 11:28:12;;;;;;;4.78;1.60;;;;;18.40;94224.00;;;;7395815;19;20204;-76
2022/06/06 11:31:03;;;;;;;5.90;1.50;;;;;18.80;94224.00;;;;7397671;19;20176;-79
2022/06/06 11:34:06;;;;;;;2.15;1.70;;;;;19.30;94213.00;;;;7393591;19;20149;-80
2022/06/06 11:37:09;;;;;;;2.88;1.75;;;;;19.40;94208.00;;;;7394904;19;20169;-76
2022/06/06 11:39:57;;;;;;;3.17;1.70;;;;;20.30;94209.00;;;;7395340;19;20188;-78
2022/06/06 11:42:40;;;;;;;3.25;1.52;;;;;20.60;94200.00;;;;7392100;19;20239;-78
2022/06/06 11:45:23;;;;;;;2.70;1.85;;;;;20.80;94202.00;;;;7396039;19;20153;-77
2022/06/06 11:48:23;;;;;;;3.17;1.80;;;;;20.20;94201.00;;;;7391853;19;20553;-77
2022/06/06 11:51:12;;;;;;;6.95;1.75;;;;;20.00;94201.00;;;;7394662;19;20136;-79
2022/06/06 11:54:10;;;;;;;2.33;1.80;;;;;19.80;94209.00;;;;7389391;19;20145;-77
2022/06/06 11:57:22;;;;;;;2.83;2.10;;;;;19.80;94199.00;;;;7394446;19;20132;-76
2022/06/06 12:00:11;;;;;;;2.75;2.05;;;;;19.20;94214.00;;;;7392982;19;20166;-77
2022/06/06 12:03:03;;;;;;;3.58;1.38;;;;;19.10;94217.00;;;;7391724;19;20695;-79
2022/06/06 12:06:00;;;;;;;2.40;1.60;;;;;19.10;94211.00;;;;7395671;19;20212;-80
2022/06/06 12:08:52;;;;;;;1.92;1.73;;;;;18.70;94213.00;;;;7395747;19;20639;-79
2022/06/06 12:11:27;;;;;;;3.22;1.90;;;;;18.30;94208.00;;;;7397986;19;20145;-80
2022/06/06 12:14:14;;;;;;;2.33;1.90;;;;;18.10;94202.00;;;;7396743;19;20633;-80
2022/06/06 12:16:53;;;;;;;2.83;2.00;;;;;17.80;94212.00;;;;7398275;19;20149;-79
2022/06/06 12:19:34;;;;;;;2.40;1.90;;;;;17.70;94206.00;;;;7399610;19;20629;-79
2022/06/06 12:22:20;;;;;;;3.22;1.77;;;;;17.60;94216.00;;;;7393399;19;20168;-77
2022/06/06 12:25:24;;;;;;;2.97;1.80;;;;;17.50;94212.00;;;;7396002;19;20546;-78
2022/06/06 12:27:59;;;;;;;3.38;1.77;;;;;17.60;94206.00;;;;7391960;19;20113;-77
2022/06/06 12:30:57;;;;;;;3.03;2.10;;;;;17.60;94211.00;;;;7387451;19;20730;-77
2022/06/06 12:33:43;;;;;;;3.70;1.90;;;;;17.70;94211.00;;;;7382992;19;20176;-77
2022/06/06 12:36:29;;;;;;;1.90;1.80;;;;;17.70;94203.00;;;;7387592;19;20141;-76
2022/06/06 12:39:05;;;;;;;2.63;2.00;;;;;17.70;94213.00;;;;7390660;19;20156;-78
2022/06/06 12:42:03;;;;;;;2.80;1.73;;;;;17.60;94219.00;;;;7386359;19;20639;-77
2022/06/06 12:44:37;;;;;;;3.97;2.00;;;;;17.40;94221.00;;;;7387733;19;20616;-77
2022/06/06 12:47:45;;;;;;;3.78;2.35;;;;;17.40;94212.00;;;;7384492;19;20140;-77
2022/06/06 12:50:31;;;;;;;3.58;2.00;;;;;17.40;94214.00;;;;7386385;19;20148;-76
2022/06/06 12:53:33;;;;;;;2.72;1.85;;;;;17.40;94213.00;;;;7387496;19;20133;-77
2022/06/06 12:56:23;;;;;;;2.13;1.80;;;;;17.40;94194.00;;;;7387980;19;20156;-76
2022/06/06 12:59:26;;;;;;;3.95;1.80;;;;;18.00;94180.00;;;;7387918;19;20149;-77
2022/06/06 13:02:26;;;;;;;5.45;2.03;;;;;19.00;94164.00;;;;7388513;19;20163;-76
2022/06/06 13:05:13;;;;;;;2.25;1.58;;;;;20.60;94150.00;;;;7388345;19;20173;-76
2022/06/06 13:08:00;;;;;;;2.30;1.98;;;;;21.30;94145.00;;;;7386062;19;20629;-78
2022/06/06 13:11:03;;;;;;;2.42;1.85;;;;;21.30;94157.00;;;;7386475;19;20164;-75
2022/06/06 13:13:53;;;;;;;2.40;1.67;;;;;20.80;94162.00;;;;7386348;19;20144;-77
2022/06/06 13:16:43;;;;;;;3.50;1.90;;;;;20.60;94167.00;;;;7387331;19;20140;-78
2022/06/06 13:20:07;;;;;;;3.53;1.80;;;;;20.30;94167.00;;;;7387906;19;20140;-77
2022/06/06 13:23:06;;;;;;;3.13;2.03;;;;;20.00;94166.00;;;;7382421;19;20168;-76
2022/06/06 13:26:06;;;;;;;3.70;2.00;;;;;19.60;94167.00;;;;7391012;19;20135;-77
2022/06/06 13:28:49;;;;;;;3.38;2.17;;;;;19.60;94171.00;;;;7387634;19;20175;-77
2022/06/06 13:31:52;;;;;;;5.50;2.30;;;;;19.40;94181.00;;;;7389583;19;20133;-79
2022/06/06 13:34:54;;;;;;;4.93;2.38;;;;;19.40;94166.00;;;;7385649;19;20152;-79
2022/06/06 13:37:51;;;;;;;4.43;2.20;;;;;19.30;94182.00;;;;7388860;19;20833;-78
2022/06/06 13:40:34;;;;;;;3.90;2.10;;;;;19.00;94187.00;;;;7386773;19;20148;-78
2022/06/06 13:43:36;;;;;;;4.63;2.35;;;;;18.80;94188.00;;;;7389329;19;20156;-78
2022/06/06 13:46:12;;;;;;;6.40;2.40;;;;;18.60;94192.00;;;;7388006;19;20520;-79
2022/06/06 13:49:01;;;;;;;4.53;2.55;;;;;18.40;94187.00;;;;7383319;19;20174;-77
2022/06/06 13:51:58;;;;;;;2.13;2.03;;;;;18.10;94185.00;;;;7389869;19;20189;-78
2022/06/06 13:54:29;;;;;;;3.67;2.30;;;;;18.40;94197.00;;;;7384732;19;20148;-78
2022/06/06 13:57:07;;;;;;;3.88;2.10;;;;;18.10;94201.00;;;;7389436;19;20174;-78
2022/06/06 13:59:47;;;;;;;5.55;2.20;;;;;18.20;94198.00;;;;7389870;19;20149;-78
2022/06/06 14:02:43;;;;;;;4.75;2.50;;;;;18.40;94207.00;;;;7386392;19;20609;-77
2022/06/06 14:05:29;;;;;;;3.22;2.30;;;;;18.00;94214.00;;;;7387014;19;20524;-75
2022/06/06 14:08:13;;;;;;;4.63;2.25;;;;;17.40;94206.00;;;;7384166;19;20149;-75
2022/06/06 14:11:05;;;;;;;4.43;2.40;;;;;17.10;94210.00;;;;7385753;19;20169;-76
2022/06/06 14:13:53;;;;;;;3.65;2.78;;;;;16.70;94213.00;;;;7383801;19;20201;-76
2022/06/06 14:16:41;;;;;;;4.00;2.88;;;;;16.80;94208.00;;;;7386795;19;20129;-77